createdAt,value
2018-08-22T00:00:42.352Z,27.48
2018-08-22T00:03:11.978Z,24.75
2018-08-22T00:05:41.877Z,24.37
2018-08-22T00:08:11.697Z,24.07
2018-08-22T00:10:41.186Z,26.62
2018-08-22T00:13:11.092Z,25.48
2018-08-22T00:15:40.907Z,24.63
2018-08-22T00:18:10.666Z,23.35
2018-08-22T00:20:40.396Z,26.20
2018-08-22T00:23:10.152Z,29.23
2018-08-22T00:25:39.802Z,28.75
2018-08-22T00:28:09.500Z,30.85
2018-08-22T00:30:39.158Z,27.58
2018-08-22T00:33:09.720Z,24.90
2018-08-22T00:35:39.460Z,24.67
2018-08-22T00:38:10.263Z,26.85
2018-08-22T00:40:40.596Z,27.95
2018-08-22T00:43:11.983Z,31.20
2018-08-22T00:45:41.863Z,25.55
2018-08-22T00:48:11.440Z,24.40
2018-08-22T00:50:41.307Z,27.62
2018-08-22T00:53:11.835Z,27.40
2018-08-22T00:55:41.788Z,26.87
2018-08-22T00:58:11.406Z,27.52
2018-08-22T01:00:41.202Z,29.30
2018-08-22T01:03:10.882Z,32.60
2018-08-22T01:05:40.546Z,32.80
2018-08-22T01:08:10.058Z,30.17
2018-08-22T01:10:39.879Z,27.93
2018-08-22T01:13:09.540Z,26.12
2018-08-22T01:15:39.161Z,24.25
2018-08-22T01:18:08.759Z,24.47
2018-08-22T01:20:38.572Z,24.90
2018-08-22T01:23:08.257Z,23.15
2018-08-22T01:25:38.025Z,21.55
2018-08-22T01:28:07.505Z,26.55
2018-08-22T01:30:37.235Z,30.37
2018-08-22T01:33:06.696Z,28.47
2018-08-22T01:35:36.594Z,27.95
2018-08-22T01:38:06.505Z,29.82
2018-08-22T01:40:36.277Z,27.13
2018-08-22T01:43:06.030Z,32.83
2018-08-22T01:45:35.800Z,28.42
2018-08-22T01:48:05.906Z,29.70
2018-08-22T01:50:35.643Z,27.50
2018-08-22T01:53:05.175Z,27.37
2018-08-22T01:55:34.961Z,25.00
2018-08-22T01:58:04.645Z,25.92
2018-08-22T02:00:34.424Z,29.67
2018-08-22T02:03:04.281Z,24.63
2018-08-22T02:05:34.054Z,28.95
2018-08-22T02:08:03.693Z,31.68
2018-08-22T02:10:33.800Z,29.35
2018-08-22T02:13:03.921Z,29.87
2018-08-22T02:15:34.112Z,28.73
2018-08-22T02:18:03.646Z,29.98
2018-08-22T02:20:34.104Z,33.25
2018-08-22T02:23:03.806Z,30.43
2018-08-22T02:25:33.387Z,28.23
2018-08-22T02:28:03.006Z,29.57
2018-08-22T02:30:32.612Z,30.57
2018-08-22T02:33:02.234Z,27.75
2018-08-22T02:35:32.292Z,30.43
2018-08-22T02:38:01.872Z,30.65
2018-08-22T02:40:31.504Z,33.30
2018-08-22T02:43:01.092Z,32.38
2018-08-22T02:45:30.812Z,27.22
2018-08-22T02:48:00.440Z,29.70
2018-08-22T02:50:30.223Z,30.48
2018-08-22T02:52:59.974Z,33.35
2018-08-22T02:55:29.699Z,37.80
2018-08-22T02:57:59.514Z,30.27
2018-08-22T03:00:29.247Z,26.97
2018-08-22T03:02:59.043Z,27.07
2018-08-22T03:05:29.060Z,29.43
2018-08-22T03:07:58.819Z,20.97
2018-08-22T03:10:28.598Z,45.03
2018-08-22T03:12:58.193Z,36.17
2018-08-22T03:15:27.888Z,33.30
2018-08-22T03:17:57.477Z,29.77
2018-08-22T03:20:27.147Z,30.13
2018-08-22T03:22:56.869Z,37.43
2018-08-22T03:25:26.538Z,40.48
2018-08-22T03:27:56.140Z,44.50
2018-08-22T03:30:26.049Z,33.50
2018-08-22T03:32:55.504Z,28.77
2018-08-22T03:35:25.097Z,29.50
2018-08-22T03:37:54.750Z,30.47
2018-08-22T03:40:24.460Z,31.97
2018-08-22T03:42:54.053Z,32.63
2018-08-22T03:45:23.949Z,31.67
2018-08-22T03:47:53.646Z,30.63
2018-08-22T03:50:23.432Z,29.20
2018-08-22T03:52:53.188Z,29.73
2018-08-22T03:55:23.005Z,31.73
2018-08-22T03:57:52.614Z,33.77
2018-08-22T04:00:22.527Z,33.20
2018-08-22T04:02:52.318Z,32.10
2018-08-22T04:05:22.049Z,30.00
2018-08-22T04:07:51.652Z,31.03
2018-08-22T04:10:21.569Z,32.97
2018-08-22T04:12:51.097Z,34.90
2018-08-22T04:15:20.869Z,26.43
2018-08-22T04:17:50.755Z,25.90
2018-08-22T04:20:20.546Z,26.93
2018-08-22T04:22:50.214Z,28.73
2018-08-22T04:25:20.125Z,31.73
2018-08-22T04:27:49.667Z,30.57
2018-08-22T04:30:19.330Z,29.40
2018-08-22T04:32:49.075Z,29.10
2018-08-22T04:35:18.835Z,31.97
2018-08-22T04:37:48.543Z,32.27
2018-08-22T04:40:18.373Z,32.70
2018-08-22T04:42:47.958Z,31.53
2018-08-22T04:45:20.766Z,29.47
2018-08-22T04:57:37.048Z,28.20
2018-08-22T05:00:12.106Z,29.35
2018-08-22T05:02:43.524Z,28.70
2018-08-22T05:05:19.730Z,26.87
2018-08-22T05:07:51.863Z,28.95
2018-08-22T05:10:30.658Z,25.68
2018-08-22T05:13:07.581Z,29.30
2018-08-22T05:15:43.401Z,27.65
2018-08-22T05:18:23.462Z,27.70
2018-08-22T05:23:34.141Z,22.82
2018-08-22T05:26:10.682Z,22.95
2018-08-22T05:28:40.679Z,21.50
2018-08-22T05:31:10.611Z,18.12
2018-08-22T05:33:40.689Z,16.97
2018-08-22T05:36:17.327Z,17.07
2018-08-22T05:38:48.248Z,17.07
2018-08-22T05:41:19.241Z,17.77
2018-08-22T05:44:02.028Z,16.87
2018-08-22T05:46:32.585Z,17.48
2018-08-22T05:49:02.579Z,17.37
2018-08-22T05:51:32.821Z,16.97
2018-08-22T05:54:03.328Z,16.35
2018-08-22T05:56:33.507Z,17.02
2018-08-22T05:59:03.520Z,14.78
2018-08-22T06:01:35.007Z,14.47
2018-08-22T06:04:05.467Z,13.78
2018-08-22T06:06:36.007Z,13.13
2018-08-22T06:09:10.585Z,13.35
2018-08-22T06:11:40.680Z,12.03
2018-08-22T06:14:10.679Z,11.55
2018-08-22T06:16:41.372Z,12.15
2018-08-22T06:19:11.708Z,11.20
2018-08-22T06:21:41.658Z,11.30
2018-08-22T06:24:11.479Z,11.08
2018-08-22T06:26:41.162Z,11.50
2018-08-22T06:29:10.743Z,10.70
2018-08-22T06:31:40.598Z,11.05
2018-08-22T06:34:10.143Z,11.45
2018-08-22T06:36:41.275Z,11.10
2018-08-22T06:39:12.659Z,10.98
2018-08-22T06:41:42.850Z,9.85
2018-08-22T06:44:12.691Z,10.53
2018-08-22T06:46:42.753Z,10.70
2018-08-22T06:49:12.418Z,10.18
2018-08-22T06:51:42.061Z,10.03
2018-08-22T06:54:11.797Z,11.20
2018-08-22T06:56:41.451Z,11.22
2018-08-22T06:59:12.411Z,11.45
2018-08-22T07:01:42.070Z,10.88
2018-08-22T07:04:11.515Z,10.50
2018-08-22T07:06:41.207Z,10.60
2018-08-22T07:09:12.718Z,10.35
2018-08-22T07:11:42.411Z,10.70
2018-08-22T07:14:12.142Z,10.82
2018-08-22T07:16:42.040Z,9.95
2018-08-22T07:19:11.793Z,10.10
2018-08-22T07:21:41.419Z,10.68
2018-08-22T07:24:11.074Z,9.48
2018-08-22T07:26:40.778Z,10.10
2018-08-22T07:29:10.497Z,8.93
2018-08-22T07:31:40.125Z,9.28
2018-08-22T07:34:09.675Z,9.18
2018-08-22T07:36:39.296Z,9.20
2018-08-22T07:39:12.643Z,8.28
2018-08-22T07:41:42.287Z,8.45
2018-08-22T07:44:13.689Z,9.30
2018-08-22T07:46:43.479Z,9.70
2018-08-22T07:49:13.070Z,8.75
2018-08-22T07:51:42.824Z,10.38
2018-08-22T07:54:12.444Z,9.55
2018-08-22T07:56:42.371Z,9.13
2018-08-22T07:59:16.368Z,9.60
2018-08-22T08:01:46.078Z,8.98
2018-08-22T08:04:15.533Z,8.95
2018-08-22T08:06:45.248Z,10.60
2018-08-22T08:09:16.211Z,9.80
2018-08-22T08:11:45.811Z,9.40
2018-08-22T08:14:15.457Z,8.93
2018-08-22T08:16:45.248Z,8.70
2018-08-22T08:19:14.772Z,8.93
2018-08-22T08:21:44.452Z,8.73
2018-08-22T08:24:14.192Z,8.10
2018-08-22T08:26:43.954Z,8.85
2018-08-22T08:29:13.458Z,8.38
2018-08-22T08:31:43.137Z,8.05
2018-08-22T08:34:12.752Z,7.42
2018-08-22T08:36:42.639Z,8.63
2018-08-22T08:39:13.027Z,8.18
2018-08-22T08:41:42.721Z,8.65
2018-08-22T08:44:12.177Z,7.75
2018-08-22T08:46:41.966Z,8.30
2018-08-22T08:49:11.653Z,8.78
2018-08-22T08:51:52.224Z,7.83
2018-08-22T08:54:22.655Z,8.18
2018-08-22T08:56:52.523Z,8.08
2018-08-22T08:59:22.063Z,7.35
2018-08-22T09:01:51.788Z,7.08
2018-08-22T09:04:21.406Z,7.05
2018-08-22T09:06:51.686Z,7.03
2018-08-22T09:09:21.178Z,7.92
2018-08-22T09:12:05.411Z,7.05
2018-08-22T09:14:35.317Z,7.30
2018-08-22T09:17:04.950Z,7.25
2018-08-22T09:19:34.597Z,6.53
2018-08-22T09:22:04.440Z,7.45
2018-08-22T09:24:34.264Z,6.67
2018-08-22T09:27:04.197Z,6.62
2018-08-22T09:29:33.651Z,6.62
2018-08-22T09:32:03.324Z,6.47
2018-08-22T09:34:32.949Z,6.62
2018-08-22T09:37:02.574Z,6.65
2018-08-22T09:39:32.377Z,6.85
2018-08-22T09:42:02.092Z,6.17
2018-08-22T09:44:31.635Z,6.20
2018-08-22T09:47:01.324Z,5.90
2018-08-22T09:49:31.036Z,5.50
2018-08-22T09:52:00.643Z,5.78
2018-08-22T09:54:30.221Z,6.08
2018-08-22T09:57:00.018Z,5.65
2018-08-22T09:59:30.040Z,5.42
2018-08-22T10:01:59.701Z,4.85
2018-08-22T10:04:29.598Z,5.05
2018-08-22T10:06:59.419Z,5.20
2018-08-22T10:09:29.008Z,5.10
2018-08-22T10:11:58.816Z,5.17
2018-08-22T10:14:28.590Z,5.12
2018-08-22T10:16:58.357Z,5.45
2018-08-22T10:19:27.857Z,5.22
2018-08-22T10:21:57.669Z,4.72
2018-08-22T10:24:27.320Z,4.10
2018-08-22T10:26:57.143Z,4.90
2018-08-22T10:29:26.860Z,5.05
2018-08-22T10:31:56.482Z,5.15
2018-08-22T10:34:26.078Z,5.42
2018-08-22T10:36:55.952Z,4.75
2018-08-22T10:39:25.562Z,5.08
2018-08-22T10:41:55.297Z,6.00
2018-08-22T10:44:25.071Z,4.85
2018-08-22T10:46:54.688Z,5.50
2018-08-22T10:49:24.356Z,5.40
2018-08-22T10:51:54.203Z,5.47
2018-08-22T10:54:23.823Z,5.33
2018-08-22T10:56:53.440Z,5.33
2018-08-22T10:59:22.959Z,5.80
2018-08-22T11:01:52.826Z,5.53
2018-08-22T11:04:22.566Z,5.30
2018-08-22T11:06:52.392Z,5.60
2018-08-22T11:09:21.943Z,5.72
2018-08-22T11:11:51.616Z,5.65
2018-08-22T11:14:21.459Z,6.12
2018-08-22T11:16:51.324Z,5.50
2018-08-22T11:19:20.765Z,5.58
2018-08-22T11:22:01.079Z,5.28
2018-08-22T11:24:41.114Z,5.97
2018-08-22T11:27:21.261Z,5.78
2018-08-22T11:30:01.401Z,5.87
2018-08-22T11:32:41.709Z,5.60
2018-08-22T11:35:09.567Z,5.95
2018-08-22T11:37:39.372Z,5.83
2018-08-22T11:40:09.073Z,6.35
2018-08-22T11:42:38.840Z,5.67
2018-08-22T11:45:08.628Z,5.90
2018-08-22T11:47:38.369Z,5.83
2018-08-22T11:50:07.973Z,5.35
2018-08-22T11:52:37.559Z,5.65
2018-08-22T11:55:07.334Z,6.05
2018-08-22T11:57:36.921Z,6.37
2018-08-22T12:00:08.127Z,5.87
2018-08-22T12:02:37.730Z,6.30
2018-08-22T12:05:07.404Z,5.70
2018-08-22T12:07:37.168Z,5.83
2018-08-22T12:10:06.915Z,6.30
2018-08-22T12:12:36.631Z,6.78
2018-08-22T12:15:06.105Z,5.35
2018-08-22T12:17:35.870Z,6.40
2018-08-22T12:20:05.557Z,5.75
2018-08-22T12:22:35.332Z,5.40
2018-08-22T12:25:05.089Z,5.40
2018-08-22T12:27:34.785Z,5.87
2018-08-22T12:30:05.221Z,5.67
2018-08-22T12:32:35.003Z,5.92
2018-08-22T12:35:04.557Z,5.20
2018-08-22T12:37:34.316Z,5.83
2018-08-22T12:40:04.070Z,5.17
2018-08-22T12:42:41.175Z,5.85
2018-08-22T12:45:10.830Z,5.50
2018-08-22T12:47:40.591Z,5.28
2018-08-22T12:50:10.227Z,5.40
2018-08-22T12:52:39.868Z,61.80
2018-08-22T12:55:09.544Z,11.68
2018-08-22T12:57:39.896Z,5.72
2018-08-22T13:00:09.468Z,8.63
2018-08-22T13:02:39.288Z,6.12
2018-08-22T13:05:08.866Z,5.60
2018-08-22T13:07:38.383Z,6.12
2018-08-22T13:10:08.105Z,5.65
2018-08-22T13:12:37.865Z,5.37
2018-08-22T13:15:10.066Z,5.58
2018-08-22T13:17:39.733Z,5.47
2018-08-22T13:20:09.306Z,5.67
2018-08-22T13:22:38.958Z,5.58
2018-08-22T13:25:12.012Z,7.62
2018-08-22T13:27:41.674Z,5.97
2018-08-22T13:30:11.364Z,6.03
2018-08-22T13:32:41.396Z,6.12
2018-08-22T13:35:11.380Z,5.42
2018-08-22T13:37:41.144Z,5.78
2018-08-22T13:40:10.713Z,5.72
2018-08-22T13:42:40.426Z,5.30
2018-08-22T13:45:10.482Z,5.90
2018-08-22T13:47:40.288Z,5.97
2018-08-22T13:50:09.944Z,5.85
2018-08-22T13:52:39.827Z,6.08
2018-08-22T13:55:10.042Z,5.95
2018-08-22T13:57:39.666Z,6.15
2018-08-22T14:00:09.889Z,6.60
2018-08-22T14:02:39.783Z,6.25
2018-08-22T14:05:09.413Z,5.95
2018-08-22T14:07:39.064Z,6.08
2018-08-22T14:10:08.615Z,5.92
2018-08-22T14:12:38.368Z,6.10
2018-08-22T14:15:08.343Z,6.30
2018-08-22T14:17:38.091Z,6.53
2018-08-22T14:20:07.805Z,6.62
2018-08-22T14:22:37.615Z,6.85
2018-08-22T14:25:07.282Z,6.47
2018-08-22T14:27:37.745Z,6.92
2018-08-22T14:30:08.522Z,6.45
2018-08-22T14:32:38.382Z,6.40
2018-08-22T14:35:08.130Z,5.97
2018-08-22T14:37:38.045Z,6.90
2018-08-22T14:40:07.713Z,6.35
2018-08-22T14:42:37.593Z,5.92
2018-08-22T14:45:08.172Z,6.85
2018-08-22T14:47:40.509Z,6.53
2018-08-22T14:50:11.719Z,6.80
2018-08-22T14:52:41.810Z,6.47
2018-08-22T14:55:11.385Z,6.70
2018-08-22T14:57:40.985Z,6.50
2018-08-22T15:00:11.968Z,6.12
2018-08-22T15:02:41.833Z,6.42
2018-08-22T15:05:11.623Z,6.42
2018-08-22T15:07:41.393Z,6.28
2018-08-22T15:10:15.267Z,6.37
2018-08-22T15:12:44.827Z,6.22
2018-08-22T15:15:14.278Z,6.05
2018-08-22T15:17:44.387Z,6.28
2018-08-22T15:20:13.971Z,6.03
2018-08-22T15:22:43.433Z,6.25
2018-08-22T15:25:13.003Z,6.20
2018-08-22T15:27:42.480Z,5.97
2018-08-22T15:30:11.953Z,5.92
2018-08-22T15:32:42.529Z,6.22
2018-08-22T15:35:11.939Z,5.85
2018-08-22T15:37:43.144Z,6.12
2018-08-22T15:40:12.629Z,6.15
2018-08-22T15:42:43.034Z,6.42
2018-08-22T15:45:12.490Z,5.80
2018-08-22T15:47:43.393Z,6.58
2018-08-22T15:50:13.075Z,6.33
2018-08-22T15:52:43.268Z,6.47
2018-08-22T15:55:16.849Z,6.15
2018-08-22T15:57:58.599Z,6.30
2018-08-22T16:00:34.446Z,5.92
2018-08-22T16:03:05.440Z,6.60
2018-08-22T16:05:36.233Z,6.25
2018-08-22T16:08:06.388Z,6.47
2018-08-22T16:10:35.892Z,6.20
2018-08-22T16:13:05.690Z,6.75
2018-08-22T16:15:37.091Z,6.40
2018-08-22T16:18:09.872Z,6.10
2018-08-22T16:20:47.723Z,6.08
2018-08-22T16:23:17.395Z,6.33
2018-08-22T16:25:49.291Z,6.53
2018-08-22T16:28:19.027Z,7.00
2018-08-22T16:30:56.951Z,6.35
2018-08-22T16:33:20.929Z,6.12
2018-08-22T16:35:50.517Z,6.90
2018-08-22T16:38:20.505Z,6.45
2018-08-22T16:40:52.756Z,6.75
2018-08-22T16:43:37.703Z,6.45
2018-08-22T16:46:10.787Z,6.67
2018-08-22T16:48:41.396Z,6.67
2018-08-22T16:51:11.763Z,6.28
2018-08-22T16:53:42.259Z,6.78
2018-08-22T16:56:12.263Z,6.72
2018-08-22T16:58:41.975Z,6.80
2018-08-22T17:01:11.587Z,6.60
2018-08-22T17:03:41.234Z,7.12
2018-08-22T17:06:14.647Z,7.28
2018-08-22T17:08:44.090Z,7.40
2018-08-22T17:11:13.694Z,7.05
2018-08-22T17:13:47.437Z,7.53
2018-08-22T17:16:17.068Z,7.67
2018-08-22T17:18:46.397Z,8.10
2018-08-22T17:21:16.181Z,8.08
2018-08-22T17:23:46.171Z,8.13
2018-08-22T17:26:18.406Z,8.70
2018-08-22T17:28:53.769Z,8.85
2018-08-22T17:31:24.771Z,9.23
2018-08-22T17:33:57.133Z,9.23
2018-08-22T17:36:27.347Z,8.95
2018-08-22T17:38:58.516Z,9.75
2018-08-22T17:41:30.252Z,9.73
2018-08-22T17:44:07.920Z,9.53
2018-08-22T17:46:41.592Z,10.25
2018-08-22T17:49:11.545Z,9.88
2018-08-22T17:51:55.060Z,10.68
2018-08-22T17:54:25.103Z,10.35
2018-08-22T17:57:06.157Z,9.98
2018-08-22T17:59:36.157Z,10.88
2018-08-22T18:02:06.196Z,10.43
2018-08-22T18:04:47.018Z,10.78
2018-08-22T18:07:18.290Z,10.60
2018-08-22T18:09:49.400Z,11.95
2018-08-22T18:12:20.548Z,11.95
2018-08-22T18:14:50.525Z,12.03
2018-08-22T18:17:22.290Z,11.57
2018-08-22T18:19:52.337Z,12.90
2018-08-22T18:22:22.470Z,12.85
2018-08-22T18:24:56.490Z,12.68
2018-08-22T18:28:13.301Z,12.33
2018-08-22T18:30:53.700Z,12.13
2018-08-22T18:33:24.278Z,11.35
2018-08-22T18:35:56.409Z,11.78
2018-08-22T18:38:27.434Z,11.08
2018-08-22T18:41:08.642Z,11.95
2018-08-22T18:43:40.255Z,11.93
2018-08-22T18:46:10.837Z,12.03
2018-08-22T18:48:47.642Z,13.18
2018-08-22T18:51:36.352Z,12.03
2018-08-22T18:54:07.346Z,12.37
2018-08-22T18:56:37.528Z,12.25
2018-08-22T18:59:18.053Z,11.78
2018-08-22T19:01:49.018Z,12.10
2018-08-22T19:04:19.029Z,12.37
2018-08-22T19:06:48.914Z,12.93
2018-08-22T19:09:18.684Z,12.10
2018-08-22T19:11:48.571Z,13.22
2018-08-22T19:14:23.806Z,13.43
2018-08-22T19:16:53.877Z,13.10
2018-08-22T19:19:24.039Z,12.45
2018-08-22T19:21:54.199Z,12.28
2018-08-22T19:24:23.958Z,12.82
2018-08-22T19:26:53.900Z,12.68
2018-08-22T19:29:24.000Z,14.07
2018-08-22T19:31:57.883Z,14.13
2018-08-22T19:34:27.782Z,13.95
2018-08-22T19:36:57.682Z,14.00
2018-08-22T19:39:39.131Z,13.08
2018-08-22T19:42:09.141Z,13.70
2018-08-22T19:44:38.923Z,14.50
2018-08-22T19:47:08.963Z,13.13
2018-08-22T19:49:38.750Z,12.95
2018-08-22T19:52:08.665Z,13.80
2018-08-22T19:54:38.553Z,14.60
2018-08-22T19:57:08.735Z,13.72
2018-08-22T19:59:38.557Z,13.78
2018-08-22T20:02:08.723Z,13.28
2018-08-22T20:04:42.628Z,13.70
2018-08-22T20:07:12.521Z,14.13
2018-08-22T20:09:43.834Z,14.10
2018-08-22T20:12:14.217Z,14.38
2018-08-22T20:14:52.905Z,15.55
2018-08-22T20:17:27.699Z,15.23
2018-08-22T20:19:57.997Z,15.83
2018-08-22T20:22:33.966Z,16.45
2018-08-22T20:25:03.945Z,16.12
2018-08-22T20:27:33.961Z,16.23
2018-08-22T20:30:08.804Z,16.35
2018-08-22T20:32:38.924Z,16.45
2018-08-22T20:35:10.853Z,15.95
2018-08-22T20:37:41.585Z,14.85
2018-08-22T20:40:11.394Z,14.93
2018-08-22T20:42:41.558Z,15.95
2018-08-22T20:45:14.958Z,15.48
2018-08-22T20:47:45.160Z,16.77
2018-08-22T20:50:15.076Z,16.57
2018-08-22T20:52:45.146Z,16.35
2018-08-22T20:55:15.104Z,16.93
2018-08-22T20:57:45.517Z,15.98
2018-08-22T21:00:16.912Z,17.00
2018-08-22T21:02:47.055Z,15.83
2018-08-22T21:05:17.546Z,18.42
2018-08-22T21:07:47.569Z,17.35
2018-08-22T21:10:17.868Z,16.15
2018-08-22T21:12:47.930Z,16.07
2018-08-22T21:15:17.691Z,15.00
2018-08-22T21:17:47.953Z,16.50
2018-08-22T21:20:23.696Z,16.02
2018-08-22T21:22:54.648Z,16.32
2018-08-22T21:25:24.435Z,18.50
2018-08-22T21:27:55.261Z,18.32
2018-08-22T21:30:25.059Z,17.70
2018-08-22T21:32:54.900Z,17.55
2018-08-22T21:35:25.467Z,18.20
2018-08-22T21:38:25.590Z,18.35
2018-08-22T21:40:55.384Z,18.75
2018-08-22T21:43:25.733Z,18.80
2018-08-22T21:45:55.508Z,20.40
2018-08-22T21:48:26.760Z,20.72
2018-08-22T21:50:56.540Z,19.80
2018-08-22T21:53:26.540Z,21.62
2018-08-22T21:55:56.307Z,20.70
2018-08-22T21:58:26.145Z,21.10
2018-08-22T22:00:55.980Z,21.55
2018-08-22T22:03:30.843Z,20.75
2018-08-22T22:06:04.320Z,21.30
2018-08-22T22:08:34.160Z,22.45
2018-08-22T22:11:06.420Z,22.25
2018-08-22T22:13:36.441Z,22.42
2018-08-22T22:16:06.742Z,22.73
2018-08-22T22:18:36.957Z,22.85
2018-08-22T22:21:16.765Z,21.62
2018-08-22T22:23:49.927Z,22.77
2018-08-22T22:26:20.341Z,21.97
2018-08-22T22:28:50.222Z,24.57
2018-08-22T22:31:20.145Z,23.10
2018-08-22T22:33:54.975Z,23.65
2018-08-22T22:36:24.684Z,23.80
2018-08-22T22:38:54.802Z,22.10
2018-08-22T22:41:29.139Z,21.48
2018-08-22T22:43:58.937Z,23.20
2018-08-22T22:46:28.933Z,25.88
2018-08-22T22:48:59.013Z,24.35
2018-08-22T22:51:29.164Z,24.67
2018-08-22T22:53:59.063Z,25.82
2018-08-22T22:56:28.924Z,27.67
2018-08-22T22:58:58.900Z,23.32
2018-08-22T23:01:28.863Z,26.68
2018-08-22T23:03:58.781Z,26.80
2018-08-22T23:06:28.523Z,26.25
2018-08-22T23:08:58.564Z,26.65
2018-08-22T23:11:28.505Z,30.08
2018-08-22T23:13:59.164Z,29.15
2018-08-22T23:16:33.766Z,29.32
2018-08-22T23:19:03.524Z,31.57
2018-08-22T23:21:33.264Z,32.40
2018-08-22T23:24:07.518Z,27.10
2018-08-22T23:26:37.259Z,28.42
2018-08-22T23:29:07.124Z,31.68
2018-08-22T23:31:36.884Z,31.80
2018-08-22T23:34:06.824Z,30.50
2018-08-22T23:36:36.618Z,30.40
2018-08-22T23:39:08.206Z,27.93
2018-08-22T23:41:38.044Z,26.00
2018-08-22T23:44:08.104Z,25.62
2018-08-22T23:46:37.866Z,26.17
2018-08-22T23:49:07.660Z,24.75
2018-08-22T23:51:37.420Z,26.25
2018-08-22T23:54:07.193Z,25.80
2018-08-22T23:56:36.985Z,26.42
2018-08-22T23:59:06.865Z,25.65
